createdAt,value
2016-10-16T00:01:25.902Z,0
2016-10-16T00:06:25.852Z,0
2016-10-16T00:11:25.805Z,0
2016-10-16T00:16:25.449Z,0
2016-10-16T00:21:25.703Z,0
2016-10-16T00:26:25.342Z,0
2016-10-16T00:31:25.596Z,0
2016-10-16T00:36:25.550Z,0
2016-10-16T00:41:25.504Z,0
2016-10-16T00:46:25.137Z,0
2016-10-16T00:51:25.397Z,0
2016-10-16T00:56:25.033Z,0
2016-10-16T01:01:25.285Z,0
2016-10-16T01:06:25.239Z,0
2016-10-16T01:11:24.881Z,0
2016-10-16T01:16:25.136Z,0
2016-10-16T01:21:25.078Z,0
2016-10-16T01:26:24.732Z,0
2016-10-16T01:31:24.975Z,0
2016-10-16T01:36:24.642Z,0
2016-10-16T01:41:24.567Z,0
2016-10-16T01:46:24.817Z,0
2016-10-16T01:51:24.468Z,0
2016-10-16T01:56:24.715Z,0
2016-10-16T02:01:24.669Z,0
2016-10-16T02:06:24.601Z,0
2016-10-16T02:11:24.551Z,0
2016-10-16T02:16:24.495Z,0
2016-10-16T02:21:24.153Z,0
2016-10-16T02:26:23.792Z,0
2016-10-16T02:31:23.731Z,0
2016-10-16T02:36:24.308Z,0
2016-10-16T02:41:24.238Z,0
2016-10-16T02:46:23.882Z,0
2016-10-16T02:51:23.536Z,0
2016-10-16T02:56:23.770Z,0
2016-10-16T03:01:23.716Z,0
2016-10-16T03:06:23.666Z,0
2016-10-16T03:11:23.925Z,0
2016-10-16T03:16:23.569Z,0
2016-10-16T03:21:23.507Z,0
2016-10-16T03:26:23.461Z,0
2016-10-16T03:31:23.709Z,0
2016-10-16T03:36:23.344Z,0
2016-10-16T03:41:22.988Z,0
2016-10-16T03:46:22.953Z,0
2016-10-16T03:51:23.499Z,0
2016-10-16T03:56:23.448Z,0
2016-10-16T04:01:23.386Z,0
2016-10-16T04:06:23.330Z,0
2016-10-16T04:11:22.979Z,0
2016-10-16T04:16:22.614Z,0
2016-10-16T04:21:23.168Z,0
2016-10-16T04:26:23.118Z,0
2016-10-16T04:31:22.754Z,0
2016-10-16T04:36:22.707Z,0
2016-10-16T04:41:22.657Z,0
2016-10-16T04:46:22.897Z,0
2016-10-16T04:51:22.535Z,0
2016-10-16T04:56:22.789Z,0
2016-10-16T05:01:22.432Z,0
2016-10-16T05:06:22.678Z,0
2016-10-16T05:11:22.620Z,0
2016-10-16T05:16:22.580Z,0
2016-10-16T05:21:22.514Z,0
2016-10-16T05:26:22.168Z,0
2016-10-16T05:31:22.106Z,0
2016-10-16T05:36:22.352Z,0
2016-10-16T05:41:21.690Z,0
2016-10-16T05:46:22.244Z,0
2016-10-16T05:51:22.187Z,0
2016-10-16T05:56:21.819Z,0
2016-10-16T06:01:21.458Z,0
2016-10-16T06:06:21.710Z,0
2016-10-16T06:11:21.668Z,0
2016-10-16T06:16:21.916Z,0
2016-10-16T06:21:21.550Z,0
2016-10-16T06:26:21.488Z,0
2016-10-16T06:31:21.742Z,0
2016-10-16T06:36:21.076Z,0
2016-10-16T06:41:21.646Z,0
2016-10-16T06:46:21.288Z,0
2016-10-16T06:51:21.527Z,0
2016-10-16T06:56:20.858Z,0
2016-10-16T07:01:21.411Z,4
2016-10-16T07:06:21.363Z,0
2016-10-16T07:11:21.468Z,0
2016-10-16T07:16:20.942Z,12
2016-10-16T07:21:20.582Z,20
2016-10-16T07:26:20.846Z,20
2016-10-16T07:31:20.494Z,24
2016-10-16T07:36:20.735Z,28
2016-10-16T07:41:20.691Z,28
2016-10-16T07:46:20.621Z,32
2016-10-16T07:51:20.569Z,32
2016-10-16T07:56:20.820Z,44
2016-10-16T08:01:20.778Z,48
2016-10-16T08:06:20.429Z,52
2016-10-16T08:11:20.368Z,56
2016-10-16T08:16:20.621Z,56
2016-10-16T08:21:20.574Z,56
2016-10-16T08:26:20.207Z,60
2016-10-16T08:31:20.160Z,56
2016-10-16T08:36:20.106Z,44
2016-10-16T08:41:20.370Z,44
2016-10-16T08:46:19.995Z,60
2016-10-16T08:51:20.258Z,68
2016-10-16T08:56:19.906Z,76
2016-10-16T09:01:19.544Z,88
2016-10-16T09:06:19.809Z,88
2016-10-16T09:11:19.751Z,92
2016-10-16T09:16:19.706Z,92
2016-10-16T09:21:19.965Z,88
2016-10-16T09:26:19.937Z,80
2016-10-16T09:31:19.872Z,84
2016-10-16T09:36:19.507Z,88
2016-10-16T09:41:19.465Z,88
2016-10-16T09:46:19.748Z,84
2016-10-16T09:51:19.675Z,88
2016-10-16T09:56:19.628Z,92
2016-10-16T10:01:19.581Z,88
2016-10-16T10:06:19.234Z,92
2016-10-16T10:11:18.876Z,92
2016-10-16T10:16:18.807Z,92
2016-10-16T10:21:19.378Z,84
2016-10-16T10:26:19.012Z,76
2016-10-16T10:31:18.959Z,68
2016-10-16T10:36:18.921Z,64
2016-10-16T10:41:18.861Z,60
2016-10-16T10:46:19.118Z,60
2016-10-16T10:51:18.451Z,56
2016-10-16T10:56:18.708Z,56
2016-10-16T11:01:18.359Z,64
2016-10-16T11:06:18.926Z,68
2016-10-16T11:11:18.563Z,72
2016-10-16T11:16:18.531Z,76
2016-10-16T11:21:18.783Z,76
2016-10-16T11:26:18.747Z,68
2016-10-16T11:31:17.786Z,64
2016-10-16T11:36:18.341Z,64
2016-10-16T11:41:17.992Z,68
2016-10-16T11:46:18.560Z,64
2016-10-16T11:51:18.190Z,72
2016-10-16T11:56:18.464Z,84
2016-10-16T12:01:18.411Z,104
2016-10-16T12:06:18.360Z,80
2016-10-16T12:11:17.999Z,72
2016-10-16T12:16:18.264Z,56
2016-10-16T12:21:18.237Z,56
2016-10-16T12:26:17.877Z,60
2016-10-16T12:31:17.798Z,64
2016-10-16T12:36:17.778Z,92
2016-10-16T12:41:18.020Z,116
2016-10-16T12:46:17.362Z,220
2016-10-16T12:51:17.911Z,380
2016-10-16T12:56:17.859Z,728
2016-10-16T13:01:17.811Z,764
2016-10-16T13:06:17.762Z,852
2016-10-16T13:11:17.702Z,908
2016-10-16T13:16:17.357Z,988
2016-10-16T13:21:17.606Z,1080
2016-10-16T13:26:17.241Z,1284
2016-10-16T13:31:17.192Z,1804
2016-10-16T13:36:17.133Z,2276
2016-10-16T13:41:16.787Z,2348
2016-10-16T13:46:17.046Z,2288
2016-10-16T13:51:16.994Z,1828
2016-10-16T13:56:17.239Z,1132
2016-10-16T14:01:16.900Z,636
2016-10-16T14:06:16.860Z,312
2016-10-16T14:11:16.798Z,264
2016-10-16T14:16:16.750Z,300
2016-10-16T14:21:16.693Z,196
2016-10-16T14:26:16.647Z,212
2016-10-16T14:31:16.593Z,304
2016-10-16T14:36:16.867Z,436
2016-10-16T14:41:17.472Z,304
2016-10-16T14:46:16.433Z,336
2016-10-16T14:51:16.681Z,220
2016-10-16T14:56:16.333Z,184
2016-10-16T15:01:16.289Z,220
2016-10-16T15:06:16.691Z,148
2016-10-16T15:11:16.516Z,108
2016-10-16T15:16:16.466Z,52
2016-10-16T15:21:16.107Z,32
2016-10-16T15:26:16.059Z,28
2016-10-16T15:31:15.990Z,24
2016-10-16T15:36:16.258Z,24
2016-10-16T15:41:16.220Z,20
2016-10-16T15:46:16.143Z,16
2016-10-16T15:51:15.808Z,16
2016-10-16T15:56:16.064Z,16
2016-10-16T16:01:16.022Z,12
2016-10-16T16:06:15.992Z,12
2016-10-16T16:11:15.924Z,12
2016-10-16T16:16:15.883Z,8
2016-10-16T16:21:15.527Z,8
2016-10-16T16:26:15.798Z,8
2016-10-16T16:31:15.762Z,8
2016-10-16T16:36:15.395Z,4
2016-10-16T16:41:15.349Z,8
2016-10-16T16:46:15.618Z,4
2016-10-16T16:51:15.266Z,4
2016-10-16T16:56:14.922Z,4
2016-10-16T17:01:15.256Z,4
2016-10-16T17:06:14.820Z,4
2016-10-16T17:11:15.089Z,4
2016-10-16T17:16:15.355Z,4
2016-10-16T17:21:15.296Z,0
2016-10-16T17:26:14.639Z,4
2016-10-16T17:31:14.911Z,4
2016-10-16T17:36:14.865Z,4
2016-10-16T17:41:14.500Z,4
2016-10-16T17:46:14.755Z,4
2016-10-16T17:51:14.709Z,4
2016-10-16T17:56:15.008Z,4
2016-10-16T18:01:14.940Z,4
2016-10-16T18:06:14.880Z,4
2016-10-16T18:11:14.533Z,4
2016-10-16T18:16:14.808Z,4
2016-10-16T18:21:14.767Z,4
2016-10-16T18:26:14.944Z,4
2016-10-16T18:31:14.657Z,4
2016-10-16T18:36:14.634Z,4
2016-10-16T18:41:14.266Z,4
2016-10-16T18:46:14.239Z,0
2016-10-16T18:51:14.168Z,4
2016-10-16T18:56:14.440Z,4
2016-10-16T19:01:14.085Z,4
2016-10-16T19:06:14.052Z,4
2016-10-16T19:11:14.299Z,4
2016-10-16T19:16:13.946Z,4
2016-10-16T19:21:13.910Z,4
2016-10-16T19:26:14.161Z,4
2016-10-16T19:31:13.811Z,4
2016-10-16T19:36:13.754Z,4
2016-10-16T19:41:14.032Z,4
2016-10-16T19:46:14.002Z,4
2016-10-16T19:51:13.621Z,4
2016-10-16T19:56:13.876Z,4
2016-10-16T20:01:13.835Z,4
2016-10-16T20:06:13.782Z,4
2016-10-16T20:11:13.435Z,4
2016-10-16T20:16:13.391Z,4
2016-10-16T20:21:13.671Z,4
2016-10-16T20:26:13.297Z,4
2016-10-16T20:31:13.236Z,12
2016-10-16T20:36:13.505Z,16
2016-10-16T20:41:13.459Z,16
2016-10-16T20:46:13.405Z,16
2016-10-16T20:51:13.362Z,12
2016-10-16T20:56:13.337Z,16
2016-10-16T21:01:12.972Z,16
2016-10-16T21:06:13.220Z,12
2016-10-16T21:11:12.889Z,12
2016-10-16T21:16:13.124Z,12
2016-10-16T21:21:12.764Z,12
2016-10-16T21:26:12.432Z,12
2016-10-16T21:31:12.702Z,12
2016-10-16T21:36:12.642Z,12
2016-10-16T21:41:12.891Z,12
2016-10-16T21:46:12.560Z,12
2016-10-16T21:51:12.796Z,12
2016-10-16T21:56:12.749Z,4
2016-10-16T22:01:12.702Z,4
2016-10-16T22:06:12.048Z,4
2016-10-16T22:11:12.306Z,0
2016-10-16T22:16:12.262Z,0
2016-10-16T22:21:12.520Z,0
2016-10-16T22:26:12.475Z,0
2016-10-16T22:31:12.127Z,0
2016-10-16T22:36:12.377Z,0
2016-10-16T22:41:12.319Z,0
2016-10-16T22:46:12.279Z,0
2016-10-16T22:51:11.615Z,0
2016-10-16T22:56:12.176Z,0
2016-10-16T23:01:12.121Z,0
2016-10-16T23:06:11.474Z,0
2016-10-16T23:11:12.036Z,0
2016-10-16T23:16:11.671Z,0
2016-10-16T23:21:11.319Z,0
2016-10-16T23:26:11.580Z,0
2016-10-16T23:31:11.846Z,0
2016-10-16T23:36:11.477Z,0
2016-10-16T23:41:11.729Z,0
2016-10-16T23:46:11.375Z,0
2016-10-16T23:51:11.632Z,0
2016-10-16T23:56:11.613Z,0
